sensor_id;sensor_type;location;lat;lon;timestamp;pressure;altitude;pressure_sealevel;temperature;humidity
25084;BME280;13075;55.682;37.564;2022-08-19T00:02:22;100100.97;;;23.83;100.00
25084;BME280;13075;55.682;37.564;2022-08-19T00:04:48;100105.06;;;23.76;100.00
25084;BME280;13075;55.682;37.564;2022-08-19T00:07:18;100111.63;;;23.75;100.00
25084;BME280;13075;55.682;37.564;2022-08-19T00:09:44;100110.00;;;23.79;100.00
25084;BME280;13075;55.682;37.564;2022-08-19T00:12:10;100107.25;;;23.74;100.00
25084;BME280;13075;55.682;37.564;2022-08-19T00:14:37;100110.53;;;23.66;100.00
25084;BME280;13075;55.682;37.564;2022-08-19T00:17:04;100118.72;;;23.61;100.00
25084;BME280;13075;55.682;37.564;2022-08-19T00:19:32;100115.97;;;23.50;100.00
25084;BME280;13075;55.682;37.564;2022-08-19T00:21:58;100119.53;;;23.46;100.00
25084;BME280;13075;55.682;37.564;2022-08-19T00:24:24;100118.41;;;23.47;100.00
25084;BME280;13075;55.682;37.564;2022-08-19T00:26:51;100124.16;;;23.40;100.00
25084;BME280;13075;55.682;37.564;2022-08-19T00:29:19;100112.13;;;23.46;100.00
25084;BME280;13075;55.682;37.564;2022-08-19T00:31:45;100114.84;;;23.46;100.00
25084;BME280;13075;55.682;37.564;2022-08-19T00:34:13;100116.22;;;23.54;100.00
25084;BME280;13075;55.682;37.564;2022-08-19T00:36:40;100114.63;;;23.53;100.00
25084;BME280;13075;55.682;37.564;2022-08-19T00:39:07;100112.41;;;23.40;100.00
25084;BME280;13075;55.682;37.564;2022-08-19T00:41:33;100129.03;;;23.43;100.00
25084;BME280;13075;55.682;37.564;2022-08-19T00:44:06;100117.56;;;23.36;100.00
25084;BME280;13075;55.682;37.564;2022-08-19T00:46:33;100128.50;;;23.46;100.00
25084;BME280;13075;55.682;37.564;2022-08-19T00:49:06;100131.50;;;23.40;100.00
25084;BME280;13075;55.682;37.564;2022-08-19T00:51:33;100125.78;;;23.46;100.00
25084;BME280;13075;55.682;37.564;2022-08-19T00:54:00;100133.72;;;23.48;100.00
25084;BME280;13075;55.682;37.564;2022-08-19T00:56:27;100133.19;;;23.51;100.00
25084;BME280;13075;55.682;37.564;2022-08-19T00:58:55;100148.75;;;23.45;100.00
25084;BME280;13075;55.682;37.564;2022-08-19T01:01:21;100149.00;;;23.44;100.00
25084;BME280;13075;55.682;37.564;2022-08-19T01:03:47;100159.09;;;23.43;100.00
25084;BME280;13075;55.682;37.564;2022-08-19T01:06:13;100147.63;;;23.41;100.00
25084;BME280;13075;55.682;37.564;2022-08-19T01:08:39;100159.09;;;23.43;100.00
25084;BME280;13075;55.682;37.564;2022-08-19T01:11:06;100162.59;;;23.34;100.00
25084;BME280;13075;55.682;37.564;2022-08-19T01:13:36;100163.94;;;23.26;100.00
25084;BME280;13075;55.682;37.564;2022-08-19T01:16:07;100164.50;;;23.33;100.00
25084;BME280;13075;55.682;37.564;2022-08-19T01:18:37;100163.66;;;23.23;100.00
25084;BME280;13075;55.682;37.564;2022-08-19T01:21:18;100155.44;;;23.18;100.00
25084;BME280;13075;55.682;37.564;2022-08-19T01:23:47;100161.34;;;23.00;100.00
25084;BME280;13075;55.682;37.564;2022-08-19T01:26:16;100163.03;;;23.06;100.00
25084;BME280;13075;55.682;37.564;2022-08-19T01:28:45;100157.31;;;23.07;100.00
25084;BME280;13075;55.682;37.564;2022-08-19T01:31:15;100160.06;;;23.07;100.00
25084;BME280;13075;55.682;37.564;2022-08-19T01:33:41;100162.47;;;22.99;100.00
25084;BME280;13075;55.682;37.564;2022-08-19T01:36:13;100162.16;;;22.95;100.00
25084;BME280;13075;55.682;37.564;2022-08-19T01:38:41;100160.75;;;22.87;100.00
25084;BME280;13075;55.682;37.564;2022-08-19T01:41:10;100157.22;;;22.87;100.00
25084;BME280;13075;55.682;37.564;2022-08-19T01:43:36;100155.81;;;22.79;100.00
25084;BME280;13075;55.682;37.564;2022-08-19T01:46:02;100153.94;;;22.85;100.00
25084;BME280;13075;55.682;37.564;2022-08-19T01:48:36;100146.84;;;22.84;100.00
25084;BME280;13075;55.682;37.564;2022-08-19T01:51:03;100150.06;;;22.71;100.00
25084;BME280;13075;55.682;37.564;2022-08-19T01:53:29;100145.41;;;22.76;100.00
25084;BME280;13075;55.682;37.564;2022-08-19T01:55:55;100149.81;;;22.82;100.00
25084;BME280;13075;55.682;37.564;2022-08-19T01:58:24;100144.88;;;22.74;100.00
25084;BME280;13075;55.682;37.564;2022-08-19T02:00:51;100139.69;;;22.73;100.00
25084;BME280;13075;55.682;37.564;2022-08-19T02:03:17;100139.13;;;22.66;100.00
25084;BME280;13075;55.682;37.564;2022-08-19T02:05:43;100131.63;;;22.56;100.00
25084;BME280;13075;55.682;37.564;2022-08-19T02:08:10;100122.09;;;22.59;100.00
25084;BME280;13075;55.682;37.564;2022-08-19T02:10:40;100126.50;;;22.60;100.00
25084;BME280;13075;55.682;37.564;2022-08-19T02:13:06;100133.00;;;22.54;100.00
25084;BME280;13075;55.682;37.564;2022-08-19T02:15:32;100138.72;;;22.52;100.00
25084;BME280;13075;55.682;37.564;2022-08-19T02:17:57;100158.84;;;22.46;100.00
25084;BME280;13075;55.682;37.564;2022-08-19T02:20:23;100165.09;;;22.42;100.00
25084;BME280;13075;55.682;37.564;2022-08-19T02:22:49;100176.81;;;22.37;100.00
25084;BME280;13075;55.682;37.564;2022-08-19T02:25:15;100176.41;;;22.23;100.00
25084;BME280;13075;55.682;37.564;2022-08-19T02:27:42;100178.88;;;22.25;100.00
25084;BME280;13075;55.682;37.564;2022-08-19T02:30:12;100178.66;;;22.31;100.00
25084;BME280;13075;55.682;37.564;2022-08-19T02:32:38;100176.81;;;22.37;100.00
25084;BME280;13075;55.682;37.564;2022-08-19T02:35:04;100176.56;;;22.44;100.00
25084;BME280;13075;55.682;37.564;2022-08-19T02:37:30;100176.88;;;22.47;100.00
25084;BME280;13075;55.682;37.564;2022-08-19T02:40:14;100174.03;;;22.32;100.00
25084;BME280;13075;55.682;37.564;2022-08-19T02:42:40;100180.03;;;22.34;100.00
25084;BME280;13075;55.682;37.564;2022-08-19T02:45:06;100176.00;;;22.42;100.00
25084;BME280;13075;55.682;37.564;2022-08-19T02:47:32;100181.97;;;22.39;100.00
25084;BME280;13075;55.682;37.564;2022-08-19T02:49:59;100174.03;;;22.32;100.00
25084;BME280;13075;55.682;37.564;2022-08-19T02:52:25;100176.50;;;22.33;100.00
25084;BME280;13075;55.682;37.564;2022-08-19T02:54:52;100184.13;;;22.31;100.00
25084;BME280;13075;55.682;37.564;2022-08-19T02:57:17;100182.25;;;22.37;100.00
25084;BME280;13075;55.682;37.564;2022-08-19T02:59:43;100179.09;;;22.18;100.00
25084;BME280;13075;55.682;37.564;2022-08-19T03:02:08;100179.69;;;22.25;100.00
25084;BME280;13075;55.682;37.564;2022-08-19T03:04:34;100183.47;;;22.19;100.00
25084;BME280;13075;55.682;37.564;2022-08-19T03:06:59;100184.81;;;22.17;100.00
25084;BME280;13075;55.682;37.564;2022-08-19T03:09:25;100167.94;;;22.20;100.00
25084;BME280;13075;55.682;37.564;2022-08-19T03:11:51;100170.94;;;22.18;100.00
25084;BME280;13075;55.682;37.564;2022-08-19T03:14:16;100180.75;;;22.19;100.00
25084;BME280;13075;55.682;37.564;2022-08-19T03:16:52;100189.44;;;22.16;100.00
25084;BME280;13075;55.682;37.564;2022-08-19T03:19:19;100185.91;;;22.16;100.00
25084;BME280;13075;55.682;37.564;2022-08-19T03:21:46;100195.72;;;22.17;100.00
25084;BME280;13075;55.682;37.564;2022-08-19T03:24:13;100202.84;;;22.23;100.00
25084;BME280;13075;55.682;37.564;2022-08-19T03:26:42;100209.44;;;22.27;100.00
25084;BME280;13075;55.682;37.564;2022-08-19T03:29:08;100192.84;;;22.33;100.00
25084;BME280;13075;55.682;37.564;2022-08-19T03:31:36;100193.81;;;22.17;100.00
25084;BME280;13075;55.682;37.564;2022-08-19T03:34:02;100203.41;;;22.25;100.00
25084;BME280;13075;55.682;37.564;2022-08-19T03:36:27;100198.78;;;22.25;100.00
25084;BME280;13075;55.682;37.564;2022-08-19T03:38:56;100195.53;;;22.28;100.00
25084;BME280;13075;55.682;37.564;2022-08-19T03:41:35;100191.66;;;22.19;100.00
25084;BME280;13075;55.682;37.564;2022-08-19T03:44:03;100189.72;;;22.20;100.00
25084;BME280;13075;55.682;37.564;2022-08-19T03:46:32;100186.72;;;22.16;100.00
25084;BME280;13075;55.682;37.564;2022-08-19T03:49:00;100186.63;;;22.06;100.00
25084;BME280;13075;55.682;37.564;2022-08-19T03:51:26;100183.41;;;22.14;100.00
25084;BME280;13075;55.682;37.564;2022-08-19T03:53:54;100184.31;;;22.25;100.00
25084;BME280;13075;55.682;37.564;2022-08-19T03:56:21;100190.94;;;22.34;100.00
25084;BME280;13075;55.682;37.564;2022-08-19T03:58:47;100187.88;;;22.25;100.00
25084;BME280;13075;55.682;37.564;2022-08-19T04:01:16;100189.38;;;22.43;100.00
25084;BME280;13075;55.682;37.564;2022-08-19T04:03:43;100184.22;;;22.47;100.00
25084;BME280;13075;55.682;37.564;2022-08-19T04:06:15;100196.03;;;22.57;100.00
25084;BME280;13075;55.682;37.564;2022-08-19T04:08:42;100197.13;;;22.61;100.00
25084;BME280;13075;55.682;37.564;2022-08-19T04:11:10;100203.25;;;22.68;100.00
25084;BME280;13075;55.682;37.564;2022-08-19T04:13:36;100201.84;;;22.66;100.00
25084;BME280;13075;55.682;37.564;2022-08-19T04:16:02;100192.72;;;22.50;100.00
25084;BME280;13075;55.682;37.564;2022-08-19T04:18:29;100204.72;;;22.54;100.00
25084;BME280;13075;55.682;37.564;2022-08-19T04:20:55;100198.41;;;22.49;100.00
25084;BME280;13075;55.682;37.564;2022-08-19T04:23:22;100210.22;;;22.59;100.00
25084;BME280;13075;55.682;37.564;2022-08-19T04:25:47;100204.63;;;22.71;100.00
25084;BME280;13075;55.682;37.564;2022-08-19T04:28:13;100201.09;;;22.75;100.00
25084;BME280;13075;55.682;37.564;2022-08-19T04:30:44;100202.72;;;22.76;100.00
25084;BME280;13075;55.682;37.564;2022-08-19T04:33:12;100202.72;;;22.76;100.00
25084;BME280;13075;55.682;37.564;2022-08-19T04:35:44;100205.44;;;22.76;100.00
25084;BME280;13075;55.682;37.564;2022-08-19T04:38:11;100209.03;;;22.82;100.00
25084;BME280;13075;55.682;37.564;2022-08-19T04:40:44;100208.88;;;22.99;100.00
25084;BME280;13075;55.682;37.564;2022-08-19T04:43:29;100217.44;;;23.17;100.00
25084;BME280;13075;55.682;37.564;2022-08-19T04:45:55;100220.09;;;23.02;100.00
25084;BME280;13075;55.682;37.564;2022-08-19T04:48:21;100219.06;;;23.23;100.00
25084;BME280;13075;55.682;37.564;2022-08-19T04:50:58;100218.63;;;23.41;100.00
25084;BME280;13075;55.682;37.564;2022-08-19T04:53:32;100212.84;;;23.33;100.00
25084;BME280;13075;55.682;37.564;2022-08-19T04:55:58;100214.56;;;23.49;100.00
25084;BME280;13075;55.682;37.564;2022-08-19T04:58:26;100216.75;;;23.47;100.00
25084;BME280;13075;55.682;37.564;2022-08-19T05:00:52;100211.84;;;23.54;100.00
25084;BME280;13075;55.682;37.564;2022-08-19T05:03:17;100213.22;;;23.56;100.00
25084;BME280;13075;55.682;37.564;2022-08-19T05:05:45;100220.66;;;23.76;100.00
25084;BME280;13075;55.682;37.564;2022-08-19T05:08:15;100219.53;;;23.62;100.00
25084;BME280;13075;55.682;37.564;2022-08-19T05:10:46;100217.66;;;23.78;100.00
25084;BME280;13075;55.682;37.564;2022-08-19T05:13:12;100220.41;;;23.93;100.00
25084;BME280;13075;55.682;37.564;2022-08-19T05:15:38;100218.19;;;23.70;100.00
25084;BME280;13075;55.682;37.564;2022-08-19T05:18:04;100216.28;;;23.75;100.00
25084;BME280;13075;55.682;37.564;2022-08-19T05:20:48;100216.81;;;23.67;100.00
25084;BME280;13075;55.682;37.564;2022-08-19T05:23:33;100223.13;;;23.78;100.00
25084;BME280;13075;55.682;37.564;2022-08-19T05:25:58;100216.22;;;23.55;100.00
25084;BME280;13075;55.682;37.564;2022-08-19T05:28:24;100219.56;;;23.77;100.00
25084;BME280;13075;55.682;37.564;2022-08-19T05:30:50;100220.69;;;23.86;100.00
25084;BME280;13075;55.682;37.564;2022-08-19T05:33:17;100213.31;;;23.97;100.00
25084;BME280;13075;55.682;37.564;2022-08-19T05:35:43;100212.78;;;23.90;100.00
25084;BME280;13075;55.682;37.564;2022-08-19T05:38:09;100218.16;;;23.60;100.00
25084;BME280;13075;55.682;37.564;2022-08-19T05:40:38;100214.91;;;23.73;100.00
25084;BME280;13075;55.682;37.564;2022-08-19T05:43:07;100220.94;;;23.85;100.00
25084;BME280;13075;55.682;37.564;2022-08-19T05:45:38;100209.75;;;23.91;100.00
25084;BME280;13075;55.682;37.564;2022-08-19T05:48:04;100207.03;;;23.91;100.00
25084;BME280;13075;55.682;37.564;2022-08-19T05:50:30;100217.66;;;23.73;100.00
25084;BME280;13075;55.682;37.564;2022-08-19T05:52:55;100217.38;;;23.69;100.00
25084;BME280;13075;55.682;37.564;2022-08-19T05:55:21;100215.78;;;23.93;100.00
25084;BME280;13075;55.682;37.564;2022-08-19T05:57:48;100217.19;;;24.16;100.00
25084;BME280;13075;55.682;37.564;2022-08-19T06:00:14;100222.94;;;24.20;100.00
25084;BME280;13075;55.682;37.564;2022-08-19T06:02:40;100216.94;;;24.43;100.00
25084;BME280;13075;55.682;37.564;2022-08-19T06:05:07;100209.25;;;24.35;100.00
25084;BME280;13075;55.682;37.564;2022-08-19T06:07:36;100212.81;;;24.55;100.00
25084;BME280;13075;55.682;37.564;2022-08-19T06:10:04;100209.81;;;24.57;100.00
25084;BME280;13075;55.682;37.564;2022-08-19T06:12:32;100214.44;;;24.76;100.00
25084;BME280;13075;55.682;37.564;2022-08-19T06:15:08;100218.00;;;24.77;100.00
25084;BME280;13075;55.682;37.564;2022-08-19T06:17:34;100227.28;;;24.91;100.00
25084;BME280;13075;55.682;37.564;2022-08-19T06:20:02;100218.28;;;24.81;100.00
25084;BME280;13075;55.682;37.564;2022-08-19T06:22:28;100216.06;;;24.72;100.00
25084;BME280;13075;55.682;37.564;2022-08-19T06:24:55;100223.47;;;24.72;100.00
25084;BME280;13075;55.682;37.564;2022-08-19T06:27:21;100223.47;;;24.87;100.00
25084;BME280;13075;55.682;37.564;2022-08-19T06:29:47;100216.88;;;25.03;100.00
25084;BME280;13075;55.682;37.564;2022-08-19T06:32:15;100222.06;;;25.05;100.00
25084;BME280;13075;55.682;37.564;2022-08-19T06:34:42;100217.66;;;25.09;100.00
25084;BME280;13075;55.682;37.564;2022-08-19T06:37:08;100213.81;;;25.15;100.00
25084;BME280;13075;55.682;37.564;2022-08-19T06:39:38;100211.97;;;24.95;100.00
25084;BME280;13075;55.682;37.564;2022-08-19T06:42:05;100216.34;;;24.86;100.00
25084;BME280;13075;55.682;37.564;2022-08-19T06:44:35;100217.16;;;24.92;100.00
25084;BME280;13075;55.682;37.564;2022-08-19T06:47:03;100218.00;;;24.77;100.00
25084;BME280;13075;55.682;37.564;2022-08-19T06:49:29;100222.34;;;24.73;100.00
25084;BME280;13075;55.682;37.564;2022-08-19T06:51:57;100218.53;;;24.74;100.00
25084;BME280;13075;55.682;37.564;2022-08-19T06:54:24;100212.25;;;24.78;100.00
25084;BME280;13075;55.682;37.564;2022-08-19T06:56:51;100221.28;;;24.89;100.00
25084;BME280;13075;55.682;37.564;2022-08-19T06:59:19;100217.19;;;24.71;100.00
25084;BME280;13075;55.682;37.564;2022-08-19T07:01:47;100211.41;;;24.88;100.00
25084;BME280;13075;55.682;37.564;2022-08-19T07:04:19;100219.88;;;24.97;100.00
25084;BME280;13075;55.682;37.564;2022-08-19T07:06:46;100225.63;;;25.00;100.00
25084;BME280;13075;55.682;37.564;2022-08-19T07:09:13;100217.00;;;25.42;100.00
25084;BME280;13075;55.682;37.564;2022-08-19T07:11:46;100222.63;;;25.66;100.00
25084;BME280;13075;55.682;37.564;2022-08-19T07:14:13;100221.31;;;26.41;99.38
25084;BME280;13075;55.682;37.564;2022-08-19T07:16:41;100224.72;;;26.28;98.07
25084;BME280;13075;55.682;37.564;2022-08-19T07:19:06;100219.16;;;26.67;92.72
25084;BME280;13075;55.682;37.564;2022-08-19T07:21:32;100223.31;;;27.64;80.45
25084;BME280;13075;55.682;37.564;2022-08-19T07:23:59;100217.09;;;28.79;67.32
25084;BME280;13075;55.682;37.564;2022-08-19T07:26:27;100213.44;;;30.37;57.71
25084;BME280;13075;55.682;37.564;2022-08-19T07:28:54;100203.06;;;31.43;53.34
25084;BME280;13075;55.682;37.564;2022-08-19T07:31:22;100212.31;;;31.30;51.16
25084;BME280;13075;55.682;37.564;2022-08-19T07:33:49;100211.63;;;31.64;49.79
25084;BME280;13075;55.682;37.564;2022-08-19T07:36:18;100216.78;;;32.85;45.46
25084;BME280;13075;55.682;37.564;2022-08-19T07:38:47;100213.53;;;33.21;43.38
25084;BME280;13075;55.682;37.564;2022-08-19T07:41:19;100221.63;;;34.14;40.95
25084;BME280;13075;55.682;37.564;2022-08-19T07:43:46;100214.50;;;33.54;42.53
25084;BME280;13075;55.682;37.564;2022-08-19T07:46:12;100217.22;;;34.78;40.14
25084;BME280;13075;55.682;37.564;2022-08-19T07:48:40;100214.00;;;34.02;40.16
25084;BME280;13075;55.682;37.564;2022-08-19T07:51:07;100225.06;;;34.11;39.95
25084;BME280;13075;55.682;37.564;2022-08-19T07:53:34;100216.13;;;35.64;37.62
25084;BME280;13075;55.682;37.564;2022-08-19T07:56:00;100208.75;;;37.10;35.58
25084;BME280;13075;55.682;37.564;2022-08-19T07:58:28;100223.25;;;38.78;32.64
25084;BME280;13075;55.682;37.564;2022-08-19T08:00:55;100218.50;;;38.21;32.16
25084;BME280;13075;55.682;37.564;2022-08-19T08:03:21;100222.56;;;36.75;33.89
25084;BME280;13075;55.682;37.564;2022-08-19T08:06:07;100212.69;;;37.25;33.04
25084;BME280;13075;55.682;37.564;2022-08-19T08:08:52;100225.28;;;34.06;37.15
25084;BME280;13075;55.682;37.564;2022-08-19T08:11:42;100233.50;;;34.56;36.60
25084;BME280;13075;55.682;37.564;2022-08-19T08:14:15;100226.81;;;36.42;34.89
25084;BME280;13075;55.682;37.564;2022-08-19T08:16:41;100230.00;;;37.46;33.00
25084;BME280;13075;55.682;37.564;2022-08-19T08:19:09;100243.75;;;36.92;32.93
25084;BME280;13075;55.682;37.564;2022-08-19T08:21:36;100223.91;;;37.75;32.25
25084;BME280;13075;55.682;37.564;2022-08-19T08:24:01;100230.09;;;35.92;34.02
25084;BME280;13075;55.682;37.564;2022-08-19T08:26:27;100234.22;;;34.11;37.14
25084;BME280;13075;55.682;37.564;2022-08-19T08:28:53;100234.75;;;33.17;38.47
25084;BME280;13075;55.682;37.564;2022-08-19T08:31:19;100240.59;;;31.83;41.86
25084;BME280;13075;55.682;37.564;2022-08-19T08:33:45;100243.06;;;31.37;43.37
25084;BME280;13075;55.682;37.564;2022-08-19T08:36:11;100247.94;;;30.25;45.92
25084;BME280;13075;55.682;37.564;2022-08-19T08:38:40;100242.25;;;29.73;48.11
25084;BME280;13075;55.682;37.564;2022-08-19T08:41:20;100253.25;;;28.59;54.38
25084;BME280;13075;55.682;37.564;2022-08-19T08:43:50;100240.84;;;28.42;56.05
25084;BME280;13075;55.682;37.564;2022-08-19T08:46:37;100239.25;;;28.23;57.62
25084;BME280;13075;55.682;37.564;2022-08-19T08:52:22;100237.22;;;27.91;60.61
25084;BME280;13075;55.682;37.564;2022-08-19T08:54:53;100233.25;;;28.21;58.12
25084;BME280;13075;55.682;37.564;2022-08-19T08:57:27;100240.78;;;28.29;56.39
25084;BME280;13075;55.682;37.564;2022-08-19T08:59:54;100231.41;;;28.30;54.62
25084;BME280;13075;55.682;37.564;2022-08-19T09:02:22;100243.81;;;28.65;52.60
25084;BME280;13075;55.682;37.564;2022-08-19T09:04:47;100240.31;;;29.32;50.18
25084;BME280;13075;55.682;37.564;2022-08-19T09:09:50;100236.84;;;29.54;48.95
25084;BME280;13075;55.682;37.564;2022-08-19T09:12:30;100242.78;;;29.34;47.48
25084;BME280;13075;55.682;37.564;2022-08-19T09:15:05;100227.25;;;29.24;47.81
25084;BME280;13075;55.682;37.564;2022-08-19T09:17:32;100238.28;;;29.11;49.13
25084;BME280;13075;55.682;37.564;2022-08-19T09:20:03;100240.06;;;28.56;51.10
25084;BME280;13075;55.682;37.564;2022-08-19T09:22:32;100234.28;;;28.06;52.73
25084;BME280;13075;55.682;37.564;2022-08-19T09:24:59;100243.94;;;28.04;54.07
25084;BME280;13075;55.682;37.564;2022-08-19T09:27:26;100250.78;;;28.25;54.08
25084;BME280;13075;55.682;37.564;2022-08-19T09:29:53;100246.34;;;28.42;53.76
25084;BME280;13075;55.682;37.564;2022-08-19T09:32:20;100244.34;;;28.48;54.00
25084;BME280;13075;55.682;37.564;2022-08-19T09:34:46;100247.31;;;28.84;52.51
25084;BME280;13075;55.682;37.564;2022-08-19T09:37:12;100241.94;;;29.20;50.98
25084;BME280;13075;55.682;37.564;2022-08-19T09:39:39;100239.19;;;29.06;50.94
25084;BME280;13075;55.682;37.564;2022-08-19T09:42:06;100245.13;;;29.54;50.09
25084;BME280;13075;55.682;37.564;2022-08-19T09:44:38;100252.44;;;29.18;50.92
25084;BME280;13075;55.682;37.564;2022-08-19T09:47:04;100255.03;;;28.68;52.59
25084;BME280;13075;55.682;37.564;2022-08-19T09:49:29;100254.13;;;28.73;52.16
25084;BME280;13075;55.682;37.564;2022-08-19T09:51:56;100261.41;;;28.96;51.19
25084;BME280;13075;55.682;37.564;2022-08-19T09:54:23;100245.03;;;29.45;49.02
25084;BME280;13075;55.682;37.564;2022-08-19T09:56:49;100251.78;;;29.39;48.18
25084;BME280;13075;55.682;37.564;2022-08-19T09:59:15;100249.38;;;29.74;44.67
25084;BME280;13075;55.682;37.564;2022-08-19T10:01:41;100256.22;;;29.90;42.93
25084;BME280;13075;55.682;37.564;2022-08-19T10:04:07;100260.91;;;29.89;40.50
25084;BME280;13075;55.682;37.564;2022-08-19T10:06:38;100258.81;;;29.59;37.54
25084;BME280;13075;55.682;37.564;2022-08-19T10:09:07;100259.41;;;29.15;38.04
25084;BME280;13075;55.682;37.564;2022-08-19T10:11:34;100270.22;;;28.98;37.94
25084;BME280;13075;55.682;37.564;2022-08-19T10:14:03;100268.09;;;28.76;37.77
25084;BME280;13075;55.682;37.564;2022-08-19T10:16:31;100276.97;;;28.73;38.17
25084;BME280;13075;55.682;37.564;2022-08-19T10:18:57;100274.44;;;28.58;38.71
25084;BME280;13075;55.682;37.564;2022-08-19T10:21:33;100269.44;;;28.79;38.67
25084;BME280;13075;55.682;37.564;2022-08-19T10:24:01;100271.69;;;28.77;38.87
25084;BME280;13075;55.682;37.564;2022-08-19T10:26:32;100265.44;;;28.71;38.76
25084;BME280;13075;55.682;37.564;2022-08-19T10:28:58;100271.78;;;28.72;38.40
25084;BME280;13075;55.682;37.564;2022-08-19T10:31:26;100271.13;;;28.42;37.78
25084;BME280;13075;55.682;37.564;2022-08-19T10:33:53;100270.03;;;28.43;37.87
25084;BME280;13075;55.682;37.564;2022-08-19T10:36:35;100275.31;;;28.21;37.01
25084;BME280;13075;55.682;37.564;2022-08-19T10:39:08;100279.25;;;28.34;37.27
25084;BME280;13075;55.682;37.564;2022-08-19T10:41:36;100264.63;;;28.52;35.27
25084;BME280;13075;55.682;37.564;2022-08-19T10:44:09;100268.72;;;28.73;35.24
25084;BME280;13075;55.682;37.564;2022-08-19T10:46:37;100259.78;;;28.30;34.22
25084;BME280;13075;55.682;37.564;2022-08-19T10:49:05;100269.50;;;28.41;35.14
25084;BME280;13075;55.682;37.564;2022-08-19T10:51:31;100270.78;;;28.30;34.78
25084;BME280;13075;55.682;37.564;2022-08-19T10:54:17;100279.38;;;28.42;34.79
25084;BME280;13075;55.682;37.564;2022-08-19T10:56:43;100274.13;;;28.46;34.57
25084;BME280;13075;55.682;37.564;2022-08-19T10:59:23;100272.28;;;28.23;34.11
25084;BME280;13075;55.682;37.564;2022-08-19T11:01:51;100274.31;;;28.50;34.24
25084;BME280;13075;55.682;37.564;2022-08-19T11:04:18;100287.59;;;28.29;34.17
25084;BME280;13075;55.682;37.564;2022-08-19T11:06:46;100280.88;;;28.35;33.77
25084;BME280;13075;55.682;37.564;2022-08-19T11:09:18;100282.16;;;28.24;33.54
25084;BME280;13075;55.682;37.564;2022-08-19T11:11:44;100266.59;;;28.52;34.34
25084;BME280;13075;55.682;37.564;2022-08-19T11:14:12;100271.81;;;28.34;33.63
25084;BME280;13075;55.682;37.564;2022-08-19T11:16:39;100274.56;;;28.34;34.31
25084;BME280;13075;55.682;37.564;2022-08-19T11:19:06;100272.19;;;28.09;34.61
25084;BME280;13075;55.682;37.564;2022-08-19T11:21:39;100272.59;;;28.03;34.82
25084;BME280;13075;55.682;37.564;2022-08-19T11:24:11;100264.75;;;28.28;35.23
25084;BME280;13075;55.682;37.564;2022-08-19T11:26:39;100262.53;;;28.12;35.07
25084;BME280;13075;55.682;37.564;2022-08-19T11:29:06;100277.38;;;27.92;35.07
25084;BME280;13075;55.682;37.564;2022-08-19T11:31:38;100262.97;;;28.00;35.33
25084;BME280;13075;55.682;37.564;2022-08-19T11:34:07;100256.47;;;27.91;35.48
25084;BME280;13075;55.682;37.564;2022-08-19T11:36:34;100262.19;;;27.76;35.67
25084;BME280;13075;55.682;37.564;2022-08-19T11:39:01;100259.75;;;27.74;36.02
25084;BME280;13075;55.682;37.564;2022-08-19T11:41:26;100267.19;;;27.74;35.72
25084;BME280;13075;55.682;37.564;2022-08-19T11:43:53;100267.91;;;27.61;35.51
25084;BME280;13075;55.682;37.564;2022-08-19T11:46:21;100270.72;;;27.56;35.80
25084;BME280;13075;55.682;37.564;2022-08-19T11:48:47;100267.97;;;27.56;35.83
25084;BME280;13075;55.682;37.564;2022-08-19T11:51:18;100282.09;;;27.68;35.91
25084;BME280;13075;55.682;37.564;2022-08-19T11:53:44;100275.78;;;27.44;37.02
25084;BME280;13075;55.682;37.564;2022-08-19T11:56:11;100276.00;;;27.71;36.96
25084;BME280;13075;55.682;37.564;2022-08-19T11:58:37;100262.97;;;27.58;37.34
25084;BME280;13075;55.682;37.564;2022-08-19T12:01:11;100270.34;;;27.62;37.57
25084;BME280;13075;55.682;37.564;2022-08-19T12:03:38;100267.63;;;27.34;38.42
25084;BME280;13075;55.682;37.564;2022-08-19T12:06:09;100257.19;;;27.36;38.81
25084;BME280;13075;55.682;37.564;2022-08-19T12:08:35;100251.06;;;27.20;39.33
25084;BME280;13075;55.682;37.564;2022-08-19T12:11:01;100258.28;;;27.11;39.89
25084;BME280;13075;55.682;37.564;2022-08-19T12:13:28;100254.44;;;27.36;40.01
25084;BME280;13075;55.682;37.564;2022-08-19T12:15:55;100246.91;;;27.23;40.80
25084;BME280;13075;55.682;37.564;2022-08-19T12:18:20;100249.59;;;27.28;41.25
25084;BME280;13075;55.682;37.564;2022-08-19T12:20:46;100247.75;;;27.18;41.76
25084;BME280;13075;55.682;37.564;2022-08-19T12:23:13;100240.81;;;27.02;42.41
25084;BME280;13075;55.682;37.564;2022-08-19T12:25:44;100251.19;;;27.05;43.06
25084;BME280;13075;55.682;37.564;2022-08-19T12:28:18;100251.00;;;27.25;42.81
25084;BME280;13075;55.682;37.564;2022-08-19T12:30:44;100245.19;;;27.27;42.96
25084;BME280;13075;55.682;37.564;2022-08-19T12:33:10;100239.81;;;27.16;43.54
25084;BME280;13075;55.682;37.564;2022-08-19T12:35:40;100237.13;;;27.35;43.75
25084;BME280;13075;55.682;37.564;2022-08-19T12:38:06;100261.09;;;27.30;43.90
25084;BME280;13075;55.682;37.564;2022-08-19T12:40:32;100238.44;;;27.43;43.74
25084;BME280;13075;55.682;37.564;2022-08-19T12:42:57;100248.47;;;27.29;44.18
25084;BME280;13075;55.682;37.564;2022-08-19T12:45:23;100243.91;;;27.19;44.75
25084;BME280;13075;55.682;37.564;2022-08-19T12:47:48;100238.88;;;27.26;45.03